sensor_id;sensor_type;location;lat;lon;timestamp;temperature;humidity
12434;DHT22;6281;49.038;8.372;2023-03-23T00:00:49;14.80;99.90
12434;DHT22;6281;49.038;8.372;2023-03-23T00:03:16;14.80;99.90
12434;DHT22;6281;49.038;8.372;2023-03-23T00:05:44;14.80;99.90
12434;DHT22;6281;49.038;8.372;2023-03-23T00:08:17;14.80;99.90
12434;DHT22;6281;49.038;8.372;2023-03-23T00:10:48;14.90;99.90
12434;DHT22;6281;49.038;8.372;2023-03-23T00:13:18;14.80;99.90
12434;DHT22;6281;49.038;8.372;2023-03-23T00:15:45;14.80;99.90
12434;DHT22;6281;49.038;8.372;2023-03-23T00:18:14;14.80;99.90
12434;DHT22;6281;49.038;8.372;2023-03-23T00:20:46;14.80;99.90
12434;DHT22;6281;49.038;8.372;2023-03-23T00:23:14;14.80;99.90
12434;DHT22;6281;49.038;8.372;2023-03-23T00:25:47;14.80;99.90
12434;DHT22;6281;49.038;8.372;2023-03-23T00:28:15;14.90;99.90
12434;DHT22;6281;49.038;8.372;2023-03-23T00:30:42;14.90;99.90
12434;DHT22;6281;49.038;8.372;2023-03-23T00:33:11;15.00;99.90
12434;DHT22;6281;49.038;8.372;2023-03-23T00:35:39;15.10;99.90
12434;DHT22;6281;49.038;8.372;2023-03-23T00:38:06;15.10;99.90
12434;DHT22;6281;49.038;8.372;2023-03-23T00:40:34;15.00;99.90
12434;DHT22;6281;49.038;8.372;2023-03-23T00:43:04;15.00;99.90
12434;DHT22;6281;49.038;8.372;2023-03-23T00:45:31;15.20;99.90
12434;DHT22;6281;49.038;8.372;2023-03-23T00:48:01;15.20;99.90
12434;DHT22;6281;49.038;8.372;2023-03-23T00:50:30;15.20;99.90
12434;DHT22;6281;49.038;8.372;2023-03-23T00:52:57;15.20;99.90
12434;DHT22;6281;49.038;8.372;2023-03-23T00:55:24;15.20;99.90
12434;DHT22;6281;49.038;8.372;2023-03-23T00:57:51;15.20;99.90
12434;DHT22;6281;49.038;8.372;2023-03-23T01:00:21;15.30;99.90
12434;DHT22;6281;49.038;8.372;2023-03-23T01:02:49;15.30;99.90
12434;DHT22;6281;49.038;8.372;2023-03-23T01:05:17;15.30;99.90
12434;DHT22;6281;49.038;8.372;2023-03-23T01:07:45;15.20;99.90
12434;DHT22;6281;49.038;8.372;2023-03-23T01:10:12;15.30;99.90
12434;DHT22;6281;49.038;8.372;2023-03-23T01:12:42;15.20;99.90
12434;DHT22;6281;49.038;8.372;2023-03-23T01:15:12;15.30;99.90
12434;DHT22;6281;49.038;8.372;2023-03-23T01:17:41;15.30;99.90
12434;DHT22;6281;49.038;8.372;2023-03-23T01:20:08;15.30;99.90
12434;DHT22;6281;49.038;8.372;2023-03-23T01:22:36;15.30;99.90
12434;DHT22;6281;49.038;8.372;2023-03-23T01:25:04;15.30;99.90
12434;DHT22;6281;49.038;8.372;2023-03-23T01:27:31;15.30;99.90
12434;DHT22;6281;49.038;8.372;2023-03-23T01:29:58;15.30;99.90
12434;DHT22;6281;49.038;8.372;2023-03-23T01:32:25;15.40;99.90
12434;DHT22;6281;49.038;8.372;2023-03-23T01:34:54;15.40;99.90
12434;DHT22;6281;49.038;8.372;2023-03-23T01:37:21;15.40;99.90
12434;DHT22;6281;49.038;8.372;2023-03-23T01:39:52;15.40;99.90
12434;DHT22;6281;49.038;8.372;2023-03-23T01:42:21;15.40;99.90
12434;DHT22;6281;49.038;8.372;2023-03-23T01:47:56;15.50;99.90
12434;DHT22;6281;49.038;8.372;2023-03-23T01:50:27;15.50;99.90
12434;DHT22;6281;49.038;8.372;2023-03-23T01:52:56;15.50;99.90
12434;DHT22;6281;49.038;8.372;2023-03-23T01:55:25;15.60;99.90
12434;DHT22;6281;49.038;8.372;2023-03-23T01:57:54;15.70;99.90
12434;DHT22;6281;49.038;8.372;2023-03-23T02:00:21;15.70;99.90
12434;DHT22;6281;49.038;8.372;2023-03-23T02:02:49;15.70;99.90
12434;DHT22;6281;49.038;8.372;2023-03-23T02:05:22;15.70;99.90
12434;DHT22;6281;49.038;8.372;2023-03-23T02:07:52;15.70;99.90
12434;DHT22;6281;49.038;8.372;2023-03-23T02:10:19;15.70;99.90
12434;DHT22;6281;49.038;8.372;2023-03-23T02:12:46;15.70;99.90
12434;DHT22;6281;49.038;8.372;2023-03-23T02:15:13;15.70;99.90
12434;DHT22;6281;49.038;8.372;2023-03-23T02:17:46;15.60;99.90
12434;DHT22;6281;49.038;8.372;2023-03-23T02:20:33;15.60;99.90
12434;DHT22;6281;49.038;8.372;2023-03-23T02:26:15;15.80;99.90
12434;DHT22;6281;49.038;8.372;2023-03-23T02:28:54;15.80;99.90
12434;DHT22;6281;49.038;8.372;2023-03-23T02:31:36;15.80;99.90
12434;DHT22;6281;49.038;8.372;2023-03-23T02:34:09;15.80;99.90
12434;DHT22;6281;49.038;8.372;2023-03-23T02:36:40;15.90;99.90
12434;DHT22;6281;49.038;8.372;2023-03-23T02:39:14;15.80;99.90
12434;DHT22;6281;49.038;8.372;2023-03-23T02:41:48;15.90;99.90
12434;DHT22;6281;49.038;8.372;2023-03-23T02:44:16;15.90;99.90
12434;DHT22;6281;49.038;8.372;2023-03-23T02:46:44;15.90;99.90
12434;DHT22;6281;49.038;8.372;2023-03-23T02:49:15;15.90;99.90
12434;DHT22;6281;49.038;8.372;2023-03-23T02:51:44;15.90;99.90
12434;DHT22;6281;49.038;8.372;2023-03-23T02:54:13;15.90;99.90
12434;DHT22;6281;49.038;8.372;2023-03-23T02:56:41;16.00;99.90
12434;DHT22;6281;49.038;8.372;2023-03-23T02:59:08;16.00;99.90
12434;DHT22;6281;49.038;8.372;2023-03-23T03:04:40;16.00;99.90
12434;DHT22;6281;49.038;8.372;2023-03-23T03:07:26;16.00;99.90
12434;DHT22;6281;49.038;8.372;2023-03-23T03:09:59;16.00;99.90
12434;DHT22;6281;49.038;8.372;2023-03-23T03:12:34;15.90;99.90
12434;DHT22;6281;49.038;8.372;2023-03-23T03:15:11;16.00;99.90
12434;DHT22;6281;49.038;8.372;2023-03-23T03:17:42;16.00;99.90
12434;DHT22;6281;49.038;8.372;2023-03-23T03:20:12;16.00;99.90
12434;DHT22;6281;49.038;8.372;2023-03-23T03:22:42;15.90;99.90
12434;DHT22;6281;49.038;8.372;2023-03-23T03:25:10;16.00;99.90
12434;DHT22;6281;49.038;8.372;2023-03-23T03:27:40;15.90;99.90
12434;DHT22;6281;49.038;8.372;2023-03-23T03:30:10;15.90;99.90
12434;DHT22;6281;49.038;8.372;2023-03-23T03:32:43;15.80;99.90
12434;DHT22;6281;49.038;8.372;2023-03-23T03:35:13;15.80;99.90
12434;DHT22;6281;49.038;8.372;2023-03-23T03:37:41;15.80;99.90
12434;DHT22;6281;49.038;8.372;2023-03-23T03:40:11;15.80;99.90
12434;DHT22;6281;49.038;8.372;2023-03-23T03:42:39;15.80;99.90
12434;DHT22;6281;49.038;8.372;2023-03-23T03:45:07;15.70;99.90
12434;DHT22;6281;49.038;8.372;2023-03-23T03:47:35;15.70;99.90
12434;DHT22;6281;49.038;8.372;2023-03-23T03:50:02;15.80;99.90
12434;DHT22;6281;49.038;8.372;2023-03-23T03:52:31;15.70;99.90
12434;DHT22;6281;49.038;8.372;2023-03-23T03:54:58;15.70;99.90
12434;DHT22;6281;49.038;8.372;2023-03-23T03:57:25;15.60;99.90
12434;DHT22;6281;49.038;8.372;2023-03-23T03:59:52;15.60;99.90
12434;DHT22;6281;49.038;8.372;2023-03-23T04:02:19;15.60;99.90
12434;DHT22;6281;49.038;8.372;2023-03-23T04:04:46;15.70;99.90
12434;DHT22;6281;49.038;8.372;2023-03-23T04:07:14;15.60;99.90
12434;DHT22;6281;49.038;8.372;2023-03-23T04:09:43;15.50;99.90
12434;DHT22;6281;49.038;8.372;2023-03-23T04:12:11;15.50;99.90
12434;DHT22;6281;49.038;8.372;2023-03-23T04:14:38;15.60;99.90
12434;DHT22;6281;49.038;8.372;2023-03-23T04:17:05;15.50;99.90
12434;DHT22;6281;49.038;8.372;2023-03-23T04:19:34;15.50;99.90
12434;DHT22;6281;49.038;8.372;2023-03-23T04:22:02;15.50;99.90
12434;DHT22;6281;49.038;8.372;2023-03-23T04:24:30;15.50;99.90
12434;DHT22;6281;49.038;8.372;2023-03-23T04:27:00;15.50;99.90
12434;DHT22;6281;49.038;8.372;2023-03-23T04:29:27;15.50;99.90
12434;DHT22;6281;49.038;8.372;2023-03-23T04:31:55;15.50;99.90
12434;DHT22;6281;49.038;8.372;2023-03-23T04:34:22;15.40;99.90
12434;DHT22;6281;49.038;8.372;2023-03-23T04:36:49;15.40;99.90
12434;DHT22;6281;49.038;8.372;2023-03-23T04:39:17;15.50;99.90
12434;DHT22;6281;49.038;8.372;2023-03-23T04:41:44;15.40;99.90
12434;DHT22;6281;49.038;8.372;2023-03-23T04:44:13;15.40;99.90
12434;DHT22;6281;49.038;8.372;2023-03-23T04:46:43;15.30;99.90
12434;DHT22;6281;49.038;8.372;2023-03-23T04:49:15;15.20;99.90
12434;DHT22;6281;49.038;8.372;2023-03-23T04:51:47;15.20;99.90
12434;DHT22;6281;49.038;8.372;2023-03-23T04:54:14;15.20;99.90
12434;DHT22;6281;49.038;8.372;2023-03-23T04:56:41;15.20;99.90
12434;DHT22;6281;49.038;8.372;2023-03-23T04:59:08;15.10;99.90
12434;DHT22;6281;49.038;8.372;2023-03-23T05:01:36;15.10;99.90
12434;DHT22;6281;49.038;8.372;2023-03-23T05:04:04;15.10;99.90
12434;DHT22;6281;49.038;8.372;2023-03-23T05:06:31;15.10;99.90
12434;DHT22;6281;49.038;8.372;2023-03-23T05:08:58;15.00;99.90
12434;DHT22;6281;49.038;8.372;2023-03-23T05:11:25;14.90;99.90
12434;DHT22;6281;49.038;8.372;2023-03-23T05:13:52;14.80;99.90
12434;DHT22;6281;49.038;8.372;2023-03-23T05:16:19;14.70;99.90
12434;DHT22;6281;49.038;8.372;2023-03-23T05:18:47;14.50;99.90
12434;DHT22;6281;49.038;8.372;2023-03-23T05:21:14;14.40;99.90
12434;DHT22;6281;49.038;8.372;2023-03-23T05:23:41;14.40;99.90
12434;DHT22;6281;49.038;8.372;2023-03-23T05:26:08;14.30;99.90
12434;DHT22;6281;49.038;8.372;2023-03-23T05:28:34;14.30;99.90
12434;DHT22;6281;49.038;8.372;2023-03-23T05:31:03;14.20;99.90
12434;DHT22;6281;49.038;8.372;2023-03-23T05:33:30;14.30;99.90
12434;DHT22;6281;49.038;8.372;2023-03-23T05:35:58;14.30;99.90
12434;DHT22;6281;49.038;8.372;2023-03-23T05:38:26;14.30;99.90
12434;DHT22;6281;49.038;8.372;2023-03-23T05:43:52;14.30;99.90
12434;DHT22;6281;49.038;8.372;2023-03-23T05:46:19;14.20;99.90
12434;DHT22;6281;49.038;8.372;2023-03-23T05:48:46;14.20;99.90
12434;DHT22;6281;49.038;8.372;2023-03-23T05:51:14;14.30;99.90
12434;DHT22;6281;49.038;8.372;2023-03-23T05:53:41;14.30;99.90
12434;DHT22;6281;49.038;8.372;2023-03-23T05:56:08;14.30;99.90
12434;DHT22;6281;49.038;8.372;2023-03-23T05:58:34;14.30;99.90
12434;DHT22;6281;49.038;8.372;2023-03-23T06:01:06;14.30;99.90
12434;DHT22;6281;49.038;8.372;2023-03-23T06:03:32;14.20;99.90
12434;DHT22;6281;49.038;8.372;2023-03-23T06:06:01;14.30;99.90
12434;DHT22;6281;49.038;8.372;2023-03-23T06:08:30;14.30;99.90
12434;DHT22;6281;49.038;8.372;2023-03-23T06:10:58;14.30;99.90
12434;DHT22;6281;49.038;8.372;2023-03-23T06:13:25;14.50;99.90
12434;DHT22;6281;49.038;8.372;2023-03-23T06:15:55;14.50;99.90
12434;DHT22;6281;49.038;8.372;2023-03-23T06:18:23;14.50;99.90
12434;DHT22;6281;49.038;8.372;2023-03-23T06:20:50;14.50;99.90
12434;DHT22;6281;49.038;8.372;2023-03-23T06:23:17;14.50;99.90
12434;DHT22;6281;49.038;8.372;2023-03-23T06:25:45;14.50;99.90
12434;DHT22;6281;49.038;8.372;2023-03-23T06:28:12;14.50;99.90
12434;DHT22;6281;49.038;8.372;2023-03-23T06:30:40;14.50;99.90
12434;DHT22;6281;49.038;8.372;2023-03-23T06:33:07;14.50;99.90
12434;DHT22;6281;49.038;8.372;2023-03-23T06:35:35;14.50;99.90
12434;DHT22;6281;49.038;8.372;2023-03-23T06:38:02;14.50;99.90
12434;DHT22;6281;49.038;8.372;2023-03-23T06:40:30;14.50;99.90
12434;DHT22;6281;49.038;8.372;2023-03-23T06:42:58;14.50;99.90
12434;DHT22;6281;49.038;8.372;2023-03-23T06:45:26;14.50;99.90
12434;DHT22;6281;49.038;8.372;2023-03-23T06:47:53;14.40;99.90
12434;DHT22;6281;49.038;8.372;2023-03-23T06:50:20;14.40;99.90
12434;DHT22;6281;49.038;8.372;2023-03-23T06:52:48;14.20;99.90
12434;DHT22;6281;49.038;8.372;2023-03-23T06:55:16;14.00;99.90
12434;DHT22;6281;49.038;8.372;2023-03-23T06:57:43;14.00;99.90
12434;DHT22;6281;49.038;8.372;2023-03-23T07:00:13;14.00;99.90
12434;DHT22;6281;49.038;8.372;2023-03-23T07:02:40;14.00;99.90
12434;DHT22;6281;49.038;8.372;2023-03-23T07:05:08;13.90;99.90
12434;DHT22;6281;49.038;8.372;2023-03-23T07:07:35;14.10;99.90
12434;DHT22;6281;49.038;8.372;2023-03-23T07:10:03;14.10;99.90
12434;DHT22;6281;49.038;8.372;2023-03-23T07:12:30;14.00;99.90
12434;DHT22;6281;49.038;8.372;2023-03-23T07:14:58;14.00;99.90
12434;DHT22;6281;49.038;8.372;2023-03-23T07:17:27;14.00;99.90
12434;DHT22;6281;49.038;8.372;2023-03-23T07:19:53;14.00;99.90
12434;DHT22;6281;49.038;8.372;2023-03-23T07:22:20;14.10;99.90
12434;DHT22;6281;49.038;8.372;2023-03-23T07:24:47;14.10;99.90
12434;DHT22;6281;49.038;8.372;2023-03-23T07:27:14;14.10;99.90
12434;DHT22;6281;49.038;8.372;2023-03-23T07:29:41;14.00;99.90
12434;DHT22;6281;49.038;8.372;2023-03-23T07:32:11;14.00;99.90
12434;DHT22;6281;49.038;8.372;2023-03-23T07:34:39;14.00;99.90
12434;DHT22;6281;49.038;8.372;2023-03-23T07:37:07;13.80;99.90
12434;DHT22;6281;49.038;8.372;2023-03-23T07:39:34;13.90;99.90
12434;DHT22;6281;49.038;8.372;2023-03-23T07:42:02;13.90;99.90
12434;DHT22;6281;49.038;8.372;2023-03-23T07:44:29;14.00;99.90
12434;DHT22;6281;49.038;8.372;2023-03-23T07:46:56;14.10;99.90
12434;DHT22;6281;49.038;8.372;2023-03-23T07:49:25;14.30;99.90
12434;DHT22;6281;49.038;8.372;2023-03-23T07:51:54;14.20;99.90
12434;DHT22;6281;49.038;8.372;2023-03-23T07:54:21;14.20;99.90
12434;DHT22;6281;49.038;8.372;2023-03-23T07:56:48;14.30;99.90
12434;DHT22;6281;49.038;8.372;2023-03-23T07:59:15;14.20;99.90
12434;DHT22;6281;49.038;8.372;2023-03-23T08:01:42;14.20;99.90
12434;DHT22;6281;49.038;8.372;2023-03-23T08:04:09;14.30;99.90
12434;DHT22;6281;49.038;8.372;2023-03-23T08:06:36;14.30;99.90
12434;DHT22;6281;49.038;8.372;2023-03-23T08:09:06;14.40;99.90
12434;DHT22;6281;49.038;8.372;2023-03-23T08:11:34;14.60;99.90
12434;DHT22;6281;49.038;8.372;2023-03-23T08:14:01;14.70;99.90
12434;DHT22;6281;49.038;8.372;2023-03-23T08:16:28;14.70;99.90
12434;DHT22;6281;49.038;8.372;2023-03-23T08:18:55;14.80;99.90
12434;DHT22;6281;49.038;8.372;2023-03-23T08:21:23;14.80;99.90
12434;DHT22;6281;49.038;8.372;2023-03-23T08:23:50;14.80;99.90
12434;DHT22;6281;49.038;8.372;2023-03-23T08:26:19;14.80;99.90
12434;DHT22;6281;49.038;8.372;2023-03-23T08:28:46;15.00;99.90
12434;DHT22;6281;49.038;8.372;2023-03-23T08:31:14;15.00;99.90
12434;DHT22;6281;49.038;8.372;2023-03-23T08:33:42;15.00;99.90
12434;DHT22;6281;49.038;8.372;2023-03-23T08:36:09;15.00;99.90
12434;DHT22;6281;49.038;8.372;2023-03-23T08:38:36;15.10;99.90
12434;DHT22;6281;49.038;8.372;2023-03-23T08:41:05;15.40;99.90
12434;DHT22;6281;49.038;8.372;2023-03-23T08:43:34;15.70;99.90
12434;DHT22;6281;49.038;8.372;2023-03-23T08:46:01;15.80;99.90
12434;DHT22;6281;49.038;8.372;2023-03-23T08:48:32;16.00;99.90
12434;DHT22;6281;49.038;8.372;2023-03-23T08:51:00;16.00;99.90
12434;DHT22;6281;49.038;8.372;2023-03-23T08:53:27;15.90;99.90
12434;DHT22;6281;49.038;8.372;2023-03-23T08:55:56;15.60;99.90
12434;DHT22;6281;49.038;8.372;2023-03-23T08:58:23;15.40;99.90
12434;DHT22;6281;49.038;8.372;2023-03-23T09:00:51;15.40;99.90
12434;DHT22;6281;49.038;8.372;2023-03-23T09:03:18;15.40;99.90
12434;DHT22;6281;49.038;8.372;2023-03-23T09:05:45;15.20;99.90
12434;DHT22;6281;49.038;8.372;2023-03-23T09:08:12;15.00;99.90
12434;DHT22;6281;49.038;8.372;2023-03-23T09:10:39;15.00;99.90
12434;DHT22;6281;49.038;8.372;2023-03-23T09:13:06;15.00;99.90
12434;DHT22;6281;49.038;8.372;2023-03-23T09:15:33;15.10;99.90
12434;DHT22;6281;49.038;8.372;2023-03-23T09:18:02;15.10;99.90
12434;DHT22;6281;49.038;8.372;2023-03-23T09:20:29;15.10;99.90
12434;DHT22;6281;49.038;8.372;2023-03-23T09:22:57;15.10;99.90
12434;DHT22;6281;49.038;8.372;2023-03-23T09:25:25;15.10;99.90
12434;DHT22;6281;49.038;8.372;2023-03-23T09:27:56;15.00;99.90
12434;DHT22;6281;49.038;8.372;2023-03-23T09:30:25;15.00;99.90
12434;DHT22;6281;49.038;8.372;2023-03-23T09:32:53;15.00;99.90
12434;DHT22;6281;49.038;8.372;2023-03-23T09:35:22;14.90;99.90
12434;DHT22;6281;49.038;8.372;2023-03-23T09:37:51;14.90;99.90
12434;DHT22;6281;49.038;8.372;2023-03-23T09:40:20;14.70;99.90
12434;DHT22;6281;49.038;8.372;2023-03-23T09:43:07;14.60;99.90
12434;DHT22;6281;49.038;8.372;2023-03-23T09:45:43;14.70;99.90
12434;DHT22;6281;49.038;8.372;2023-03-23T09:48:26;14.70;99.90
12434;DHT22;6281;49.038;8.372;2023-03-23T09:51:01;14.60;99.90
12434;DHT22;6281;49.038;8.372;2023-03-23T09:53:33;14.30;99.90
12434;DHT22;6281;49.038;8.372;2023-03-23T09:56:05;14.00;99.90
12434;DHT22;6281;49.038;8.372;2023-03-23T09:58:39;13.90;99.90
12434;DHT22;6281;49.038;8.372;2023-03-23T10:01:13;13.80;99.90
12434;DHT22;6281;49.038;8.372;2023-03-23T10:03:43;13.90;99.90
12434;DHT22;6281;49.038;8.372;2023-03-23T10:06:13;13.80;99.90
12434;DHT22;6281;49.038;8.372;2023-03-23T10:08:49;14.10;99.90
12434;DHT22;6281;49.038;8.372;2023-03-23T10:11:24;13.90;99.90
12434;DHT22;6281;49.038;8.372;2023-03-23T10:14:13;13.90;99.90
12434;DHT22;6281;49.038;8.372;2023-03-23T10:16:51;13.90;99.90
12434;DHT22;6281;49.038;8.372;2023-03-23T10:19:25;14.00;99.90
12434;DHT22;6281;49.038;8.372;2023-03-23T10:21:59;14.00;99.90
12434;DHT22;6281;49.038;8.372;2023-03-23T10:24:33;14.10;99.90
12434;DHT22;6281;49.038;8.372;2023-03-23T10:27:07;14.00;99.90
12434;DHT22;6281;49.038;8.372;2023-03-23T10:29:42;13.70;99.90
12434;DHT22;6281;49.038;8.372;2023-03-23T10:32:15;13.60;99.90
12434;DHT22;6281;49.038;8.372;2023-03-23T10:34:47;13.70;99.90
12434;DHT22;6281;49.038;8.372;2023-03-23T10:37:21;13.70;99.90
12434;DHT22;6281;49.038;8.372;2023-03-23T10:39:50;13.80;99.90
12434;DHT22;6281;49.038;8.372;2023-03-23T10:42:25;13.80;99.90
12434;DHT22;6281;49.038;8.372;2023-03-23T10:44:54;13.80;99.90
12434;DHT22;6281;49.038;8.372;2023-03-23T10:47:22;13.90;99.90
12434;DHT22;6281;49.038;8.372;2023-03-23T10:49:51;13.80;99.90
12434;DHT22;6281;49.038;8.372;2023-03-23T10:52:28;13.90;99.90
12434;DHT22;6281;49.038;8.372;2023-03-23T10:55:00;13.90;99.90
12434;DHT22;6281;49.038;8.372;2023-03-23T10:57:30;14.00;99.90
12434;DHT22;6281;49.038;8.372;2023-03-23T11:00:00;14.30;99.90
12434;DHT22;6281;49.038;8.372;2023-03-23T11:02:32;14.40;99.90
12434;DHT22;6281;49.038;8.372;2023-03-23T11:05:01;14.40;99.90
12434;DHT22;6281;49.038;8.372;2023-03-23T11:07:32;14.10;99.90
12434;DHT22;6281;49.038;8.372;2023-03-23T11:10:07;14.10;99.90
12434;DHT22;6281;49.038;8.372;2023-03-23T11:12:35;13.90;99.90
12434;DHT22;6281;49.038;8.372;2023-03-23T11:15:22;13.80;99.90
12434;DHT22;6281;49.038;8.372;2023-03-23T11:17:56;13.80;99.90
12434;DHT22;6281;49.038;8.372;2023-03-23T11:20:24;13.80;99.90
12434;DHT22;6281;49.038;8.372;2023-03-23T11:22:53;13.90;99.90
12434;DHT22;6281;49.038;8.372;2023-03-23T11:25:20;14.00;99.90
12434;DHT22;6281;49.038;8.372;2023-03-23T11:27:48;14.00;99.90
12434;DHT22;6281;49.038;8.372;2023-03-23T11:30:24;14.20;99.90
12434;DHT22;6281;49.038;8.372;2023-03-23T11:32:53;14.20;99.90
12434;DHT22;6281;49.038;8.372;2023-03-23T11:35:23;14.30;99.90
12434;DHT22;6281;49.038;8.372;2023-03-23T11:37:54;14.40;99.90
12434;DHT22;6281;49.038;8.372;2023-03-23T11:43:21;14.30;99.90
12434;DHT22;6281;49.038;8.372;2023-03-23T11:45:56;14.40;99.90
12434;DHT22;6281;49.038;8.372;2023-03-23T11:48:32;14.50;99.90
12434;DHT22;6281;49.038;8.372;2023-03-23T11:51:02;14.50;99.90
12434;DHT22;6281;49.038;8.372;2023-03-23T11:53:39;14.70;99.90
12434;DHT22;6281;49.038;8.372;2023-03-23T11:56:20;14.70;99.90
12434;DHT22;6281;49.038;8.372;2023-03-23T11:58:49;14.60;99.90
12434;DHT22;6281;49.038;8.372;2023-03-23T12:01:32;14.60;99.90
12434;DHT22;6281;49.038;8.372;2023-03-23T12:04:39;14.70;99.90
12434;DHT22;6281;49.038;8.372;2023-03-23T12:07:30;14.70;99.90
12434;DHT22;6281;49.038;8.372;2023-03-23T12:10:05;14.90;99.90
12434;DHT22;6281;49.038;8.372;2023-03-23T12:12:42;15.10;99.90
12434;DHT22;6281;49.038;8.372;2023-03-23T12:15:22;15.10;99.90
12434;DHT22;6281;49.038;8.372;2023-03-23T12:17:58;15.10;99.90
12434;DHT22;6281;49.038;8.372;2023-03-23T12:20:35;15.10;99.90
12434;DHT22;6281;49.038;8.372;2023-03-23T12:23:22;15.10;99.90
12434;DHT22;6281;49.038;8.372;2023-03-23T12:29:18;15.10;99.90
12434;DHT22;6281;49.038;8.372;2023-03-23T12:31:56;15.00;99.90
12434;DHT22;6281;49.038;8.372;2023-03-23T12:34:30;15.00;99.90
12434;DHT22;6281;49.038;8.372;2023-03-23T12:37:10;14.90;99.90
12434;DHT22;6281;49.038;8.372;2023-03-23T12:39:50;14.90;99.90
12434;DHT22;6281;49.038;8.372;2023-03-23T12:42:28;15.00;99.90
12434;DHT22;6281;49.038;8.372;2023-03-23T12:45:04;14.90;99.90
12434;DHT22;6281;49.038;8.372;2023-03-23T12:47:42;14.90;99.90
12434;DHT22;6281;49.038;8.372;2023-03-23T12:50:15;14.90;99.90
12434;DHT22;6281;49.038;8.372;2023-03-23T12:52:48;14.90;99.90
12434;DHT22;6281;49.038;8.372;2023-03-23T12:55:20;14.90;99.90
12434;DHT22;6281;49.038;8.372;2023-03-23T12:57:52;14.80;99.90
12434;DHT22;6281;49.038;8.372;2023-03-23T13:00:27;14.90;99.90
12434;DHT22;6281;49.038;8.372;2023-03-23T13:03:00;14.90;99.90
12434;DHT22;6281;49.038;8.372;2023-03-23T13:05:40;14.80;99.90
12434;DHT22;6281;49.038;8.372;2023-03-23T13:08:14;14.80;99.90
12434;DHT22;6281;49.038;8.372;2023-03-23T13:10:45;14.90;99.90
12434;DHT22;6281;49.038;8.372;2023-03-23T13:13:16;14.80;99.90
12434;DHT22;6281;49.038;8.372;2023-03-23T13:15:52;15.00;99.90
12434;DHT22;6281;49.038;8.372;2023-03-23T13:18:28;15.00;99.90
12434;DHT22;6281;49.038;8.372;2023-03-23T13:21:05;15.00;99.90
12434;DHT22;6281;49.038;8.372;2023-03-23T13:23:37;15.00;99.90
12434;DHT22;6281;49.038;8.372;2023-03-23T13:26:07;15.00;99.90
12434;DHT22;6281;49.038;8.372;2023-03-23T13:28:50;15.10;99.90
12434;DHT22;6281;49.038;8.372;2023-03-23T13:31:21;15.30;99.90
12434;DHT22;6281;49.038;8.372;2023-03-23T13:33:52;15.50;99.90
12434;DHT22;6281;49.038;8.372;2023-03-23T13:36:28;15.50;99.90
12434;DHT22;6281;49.038;8.372;2023-03-23T13:38:58;15.70;99.90
12434;DHT22;6281;49.038;8.372;2023-03-23T13:41:26;15.50;99.90
12434;DHT22;6281;49.038;8.372;2023-03-23T13:44:05;15.60;99.90
12434;DHT22;6281;49.038;8.372;2023-03-23T13:46:52;15.80;99.90
12434;DHT22;6281;49.038;8.372;2023-03-23T13:49:21;15.80;99.90
12434;DHT22;6281;49.038;8.372;2023-03-23T13:52:14;15.70;99.90
12434;DHT22;6281;49.038;8.372;2023-03-23T13:54:44;15.70;99.90
12434;DHT22;6281;49.038;8.372;2023-03-23T13:57:32;16.10;99.90
12434;DHT22;6281;49.038;8.372;2023-03-23T14:02:59;16.00;99.90
12434;DHT22;6281;49.038;8.372;2023-03-23T14:05:37;16.30;99.90
12434;DHT22;6281;49.038;8.372;2023-03-23T14:08:13;16.50;99.90
12434;DHT22;6281;49.038;8.372;2023-03-23T14:10:42;16.20;99.90
12434;DHT22;6281;49.038;8.372;2023-03-23T14:13:16;16.20;99.90
12434;DHT22;6281;49.038;8.372;2023-03-23T14:15:53;16.20;99.90
12434;DHT22;6281;49.038;8.372;2023-03-23T14:18:25;16.00;99.90
12434;DHT22;6281;49.038;8.372;2023-03-23T14:20:53;16.00;99.90
12434;DHT22;6281;49.038;8.372;2023-03-23T14:23:22;16.00;99.90
12434;DHT22;6281;49.038;8.372;2023-03-23T14:25:59;16.00;99.90
12434;DHT22;6281;49.038;8.372;2023-03-23T14:28:31;16.00;99.90
12434;DHT22;6281;49.038;8.372;2023-03-23T14:30:59;16.20;99.90
12434;DHT22;6281;49.038;8.372;2023-03-23T14:33:28;16.40;99.90
12434;DHT22;6281;49.038;8.372;2023-03-23T14:35:57;16.40;99.90
12434;DHT22;6281;49.038;8.372;2023-03-23T14:38:25;16.20;99.90
12434;DHT22;6281;49.038;8.372;2023-03-23T14:41:00;16.20;99.90
12434;DHT22;6281;49.038;8.372;2023-03-23T14:43:29;16.10;99.90
12434;DHT22;6281;49.038;8.372;2023-03-23T14:45:58;16.20;99.90
12434;DHT22;6281;49.038;8.372;2023-03-23T14:48:29;16.20;99.90
12434;DHT22;6281;49.038;8.372;2023-03-23T14:50:57;16.10;99.90
12434;DHT22;6281;49.038;8.372;2023-03-23T14:53:31;16.20;99.90
12434;DHT22;6281;49.038;8.372;2023-03-23T14:56:01;16.20;99.90
12434;DHT22;6281;49.038;8.372;2023-03-23T14:58:30;16.20;99.90
12434;DHT22;6281;49.038;8.372;2023-03-23T15:00:59;16.10;99.90
12434;DHT22;6281;49.038;8.372;2023-03-23T15:03:33;16.10;99.90
12434;DHT22;6281;49.038;8.372;2023-03-23T15:06:04;16.20;99.90
12434;DHT22;6281;49.038;8.372;2023-03-23T15:08:33;16.10;99.90
12434;DHT22;6281;49.038;8.372;2023-03-23T15:11:07;16.00;99.90
12434;DHT22;6281;49.038;8.372;2023-03-23T15:13:35;16.20;99.90
12434;DHT22;6281;49.038;8.372;2023-03-23T15:16:05;16.10;99.90
12434;DHT22;6281;49.038;8.372;2023-03-23T15:18:35;16.20;99.90
12434;DHT22;6281;49.038;8.372;2023-03-23T15:21:12;16.20;99.90
12434;DHT22;6281;49.038;8.372;2023-03-23T15:23:45;16.20;99.90
12434;DHT22;6281;49.038;8.372;2023-03-23T15:26:25;16.20;99.90
12434;DHT22;6281;49.038;8.372;2023-03-23T15:29:08;16.30;99.90
12434;DHT22;6281;49.038;8.372;2023-03-23T15:31:39;16.20;99.90
12434;DHT22;6281;49.038;8.372;2023-03-23T15:34:24;16.20;99.90
12434;DHT22;6281;49.038;8.372;2023-03-23T15:36:57;16.20;99.90
12434;DHT22;6281;49.038;8.372;2023-03-23T15:39:24;16.30;99.90
12434;DHT22;6281;49.038;8.372;2023-03-23T15:41:52;16.30;99.90
12434;DHT22;6281;49.038;8.372;2023-03-23T15:44:37;16.40;99.90
12434;DHT22;6281;49.038;8.372;2023-03-23T15:47:19;16.40;99.90
12434;DHT22;6281;49.038;8.372;2023-03-23T15:49:58;16.30;99.90
12434;DHT22;6281;49.038;8.372;2023-03-23T15:52:28;16.30;99.90
12434;DHT22;6281;49.038;8.372;2023-03-23T15:54:55;16.30;99.90
12434;DHT22;6281;49.038;8.372;2023-03-23T15:57:22;16.30;99.90
12434;DHT22;6281;49.038;8.372;2023-03-23T15:59:49;16.40;99.90
12434;DHT22;6281;49.038;8.372;2023-03-23T16:02:20;16.30;99.90
12434;DHT22;6281;49.038;8.372;2023-03-23T16:04:49;16.20;99.90
12434;DHT22;6281;49.038;8.372;2023-03-23T16:07:18;16.10;99.90
12434;DHT22;6281;49.038;8.372;2023-03-23T16:09:46;16.10;99.90
12434;DHT22;6281;49.038;8.372;2023-03-23T16:12:13;16.10;99.90
12434;DHT22;6281;49.038;8.372;2023-03-23T16:14:40;16.10;99.90
12434;DHT22;6281;49.038;8.372;2023-03-23T16:17:10;16.10;99.90
12434;DHT22;6281;49.038;8.372;2023-03-23T16:19:38;16.00;99.90
12434;DHT22;6281;49.038;8.372;2023-03-23T16:22:07;16.00;99.90
12434;DHT22;6281;49.038;8.372;2023-03-23T16:24:34;16.00;99.90
12434;DHT22;6281;49.038;8.372;2023-03-23T16:27:01;15.90;99.90